sensor_id;sensor_type;location;lat;lon;timestamp;pressure;altitude;pressure_sealevel;temperature
27986;BMP280;15453;53.692;10.168;2022-10-15T00:00:29;100285.06;;;18.14
27986;BMP280;15453;53.692;10.168;2022-10-15T00:02:55;100278.72;;;18.14
27986;BMP280;15453;53.692;10.168;2022-10-15T00:05:21;100285.59;;;18.16
27986;BMP280;15453;53.692;10.168;2022-10-15T00:07:46;100285.59;;;18.16
27986;BMP280;15453;53.692;10.168;2022-10-15T00:10:12;100276.97;;;18.18
27986;BMP280;15453;53.692;10.168;2022-10-15T00:12:38;100276.97;;;18.18
27986;BMP280;15453;53.692;10.168;2022-10-15T00:15:04;100274.81;;;18.15
27986;BMP280;15453;53.692;10.168;2022-10-15T00:17:30;100278.44;;;18.15
27986;BMP280;15453;53.692;10.168;2022-10-15T00:19:55;100273.19;;;18.14
27986;BMP280;15453;53.692;10.168;2022-10-15T00:22:20;100275.34;;;18.17
27986;BMP280;15453;53.692;10.168;2022-10-15T00:24:46;100265.06;;;18.17
27986;BMP280;15453;53.692;10.168;2022-10-15T00:27:11;100276.88;;;18.23
27986;BMP280;15453;53.692;10.168;2022-10-15T00:29:36;100269.38;;;18.23
27986;BMP280;15453;53.692;10.168;2022-10-15T00:32:01;100269.38;;;18.23
27986;BMP280;15453;53.692;10.168;2022-10-15T00:34:26;100271.81;;;18.25
27986;BMP280;15453;53.692;10.168;2022-10-15T00:36:52;100269.88;;;18.25
27986;BMP280;15453;53.692;10.168;2022-10-15T00:39:17;100269.88;;;18.25
27986;BMP280;15453;53.692;10.168;2022-10-15T00:41:43;100277.28;;;18.30
27986;BMP280;15453;53.692;10.168;2022-10-15T00:46:51;100268.72;;;18.26
27986;BMP280;15453;53.692;10.168;2022-10-15T00:52:00;100269.03;;;18.25
27986;BMP280;15453;53.692;10.168;2022-10-15T00:54:30;100268.25;;;18.24
27986;BMP280;15453;53.692;10.168;2022-10-15T00:56:55;100268.25;;;18.24
27986;BMP280;15453;53.692;10.168;2022-10-15T00:59:23;100264.31;;;18.25
27986;BMP280;15453;53.692;10.168;2022-10-15T01:01:50;100264.31;;;18.25
27986;BMP280;15453;53.692;10.168;2022-10-15T01:04:16;100256.63;;;18.22
27986;BMP280;15453;53.692;10.168;2022-10-15T01:06:43;100258.78;;;18.25
27986;BMP280;15453;53.692;10.168;2022-10-15T01:09:08;100246.88;;;18.25
27986;BMP280;15453;53.692;10.168;2022-10-15T01:11:48;100246.88;;;18.25
27986;BMP280;15453;53.692;10.168;2022-10-15T01:14:26;100246.69;;;18.21
27986;BMP280;15453;53.692;10.168;2022-10-15T01:28:28;100256.31;;;18.24
27986;BMP280;15453;53.692;10.168;2022-10-15T01:31:05;100256.31;;;18.24
27986;BMP280;15453;53.692;10.168;2022-10-15T01:33:46;100244.44;;;18.23
27986;BMP280;15453;53.692;10.168;2022-10-15T01:38:59;100249.63;;;18.25
27986;BMP280;15453;53.692;10.168;2022-10-15T01:41:36;100250.47;;;18.25
27986;BMP280;15453;53.692;10.168;2022-10-15T01:44:27;100248.00;;;18.24
27986;BMP280;15453;53.692;10.168;2022-10-15T01:47:00;100248.00;;;18.24
27986;BMP280;15453;53.692;10.168;2022-10-15T01:49:31;100240.84;;;18.23
27986;BMP280;15453;53.692;10.168;2022-10-15T01:51:59;100246.56;;;18.26
27986;BMP280;15453;53.692;10.168;2022-10-15T01:54:26;100253.75;;;18.27
27986;BMP280;15453;53.692;10.168;2022-10-15T01:56:53;100253.75;;;18.27
27986;BMP280;15453;53.692;10.168;2022-10-15T01:59:21;100252.63;;;18.28
27986;BMP280;15453;53.692;10.168;2022-10-15T02:01:47;100255.41;;;18.28
27986;BMP280;15453;53.692;10.168;2022-10-15T02:04:25;100252.09;;;18.26
27986;BMP280;15453;53.692;10.168;2022-10-15T02:07:10;100252.09;;;18.26
27986;BMP280;15453;53.692;10.168;2022-10-15T02:09:56;100252.41;;;18.25
27986;BMP280;15453;53.692;10.168;2022-10-15T02:12:41;100255.00;;;18.21
27986;BMP280;15453;53.692;10.168;2022-10-15T02:20:38;100246.38;;;18.23
27986;BMP280;15453;53.692;10.168;2022-10-15T02:23:19;100246.69;;;18.21
27986;BMP280;15453;53.692;10.168;2022-10-15T02:25:46;100246.69;;;18.21
27986;BMP280;15453;53.692;10.168;2022-10-15T02:28:13;100238.38;;;18.21
27986;BMP280;15453;53.692;10.168;2022-10-15T02:30:41;100233.97;;;18.20
27986;BMP280;15453;53.692;10.168;2022-10-15T02:33:08;100228.41;;;18.20
27986;BMP280;15453;53.692;10.168;2022-10-15T02:35:35;100225.97;;;18.19
27986;BMP280;15453;53.692;10.168;2022-10-15T02:38:04;100225.97;;;18.19
27986;BMP280;15453;53.692;10.168;2022-10-15T02:40:32;100224.94;;;18.15
27986;BMP280;15453;53.692;10.168;2022-10-15T02:42:58;100228.53;;;18.15
27986;BMP280;15453;53.692;10.168;2022-10-15T02:45:24;100224.94;;;18.15
27986;BMP280;15453;53.692;10.168;2022-10-15T02:47:49;100231.09;;;18.12
27986;BMP280;15453;53.692;10.168;2022-10-15T02:50:14;100231.41;;;18.10
27986;BMP280;15453;53.692;10.168;2022-10-15T02:52:39;100239.72;;;18.10
27986;BMP280;15453;53.692;10.168;2022-10-15T02:55:05;100237.59;;;18.07
27986;BMP280;15453;53.692;10.168;2022-10-15T02:57:30;100237.59;;;18.07
27986;BMP280;15453;53.692;10.168;2022-10-15T02:59:56;100232.97;;;18.03
27986;BMP280;15453;53.692;10.168;2022-10-15T03:02:21;100231.03;;;18.03
27986;BMP280;15453;53.692;10.168;2022-10-15T03:04:46;100231.03;;;18.03
27986;BMP280;15453;53.692;10.168;2022-10-15T03:07:11;100239.13;;;18.00
27986;BMP280;15453;53.692;10.168;2022-10-15T03:09:38;100239.13;;;18.00
27986;BMP280;15453;53.692;10.168;2022-10-15T03:12:03;100237.28;;;17.95
27986;BMP280;15453;53.692;10.168;2022-10-15T03:14:28;100237.28;;;17.95
27986;BMP280;15453;53.692;10.168;2022-10-15T03:16:54;100233.50;;;17.91
27986;BMP280;15453;53.692;10.168;2022-10-15T03:19:19;100241.28;;;17.89
27986;BMP280;15453;53.692;10.168;2022-10-15T03:21:44;100238.00;;;17.87
27986;BMP280;15453;53.692;10.168;2022-10-15T03:24:09;100237.50;;;17.85
27986;BMP280;15453;53.692;10.168;2022-10-15T03:26:35;100237.50;;;17.85
27986;BMP280;15453;53.692;10.168;2022-10-15T03:29:00;100225.91;;;17.83
27986;BMP280;15453;53.692;10.168;2022-10-15T03:31:25;100241.22;;;17.81
27986;BMP280;15453;53.692;10.168;2022-10-15T03:33:51;100229.59;;;17.79
27986;BMP280;15453;53.692;10.168;2022-10-15T03:36:16;100233.81;;;17.76
27986;BMP280;15453;53.692;10.168;2022-10-15T03:38:41;100237.72;;;17.75
27986;BMP280;15453;53.692;10.168;2022-10-15T03:41:06;100237.72;;;17.75
27986;BMP280;15453;53.692;10.168;2022-10-15T03:43:32;100238.63;;;17.71
27986;BMP280;15453;53.692;10.168;2022-10-15T03:46:01;100238.63;;;17.71
27986;BMP280;15453;53.692;10.168;2022-10-15T03:48:26;100251.47;;;17.67
27986;BMP280;15453;53.692;10.168;2022-10-15T03:50:51;100248.78;;;17.62
27986;BMP280;15453;53.692;10.168;2022-10-15T03:53:16;100250.22;;;17.59
27986;BMP280;15453;53.692;10.168;2022-10-15T03:55:42;100250.22;;;17.59
27986;BMP280;15453;53.692;10.168;2022-10-15T03:58:07;100245.94;;;17.53
27986;BMP280;15453;53.692;10.168;2022-10-15T04:00:32;100252.59;;;17.52
27986;BMP280;15453;53.692;10.168;2022-10-15T04:02:57;100248.47;;;17.50
27986;BMP280;15453;53.692;10.168;2022-10-15T04:05:23;100254.63;;;17.47
27986;BMP280;15453;53.692;10.168;2022-10-15T04:07:48;100257.19;;;17.43
27986;BMP280;15453;53.692;10.168;2022-10-15T04:10:14;100255.03;;;17.40
27986;BMP280;15453;53.692;10.168;2022-10-15T04:12:39;100260.00;;;17.38
27986;BMP280;15453;53.692;10.168;2022-10-15T04:15:04;100243.22;;;17.35
27986;BMP280;15453;53.692;10.168;2022-10-15T04:17:30;100257.03;;;17.35
27986;BMP280;15453;53.692;10.168;2022-10-15T04:19:55;100252.13;;;17.32
27986;BMP280;15453;53.692;10.168;2022-10-15T04:22:20;100256.31;;;17.29
27986;BMP280;15453;53.692;10.168;2022-10-15T04:24:46;100253.06;;;17.27
27986;BMP280;15453;53.692;10.168;2022-10-15T04:27:11;100253.06;;;17.27
27986;BMP280;15453;53.692;10.168;2022-10-15T04:29:36;100251.19;;;17.23
27986;BMP280;15453;53.692;10.168;2022-10-15T04:32:02;100261.72;;;17.20
27986;BMP280;15453;53.692;10.168;2022-10-15T04:34:27;100263.16;;;17.18
27986;BMP280;15453;53.692;10.168;2022-10-15T04:36:53;100263.16;;;17.18
27986;BMP280;15453;53.692;10.168;2022-10-15T04:39:18;100258.84;;;17.12
27986;BMP280;15453;53.692;10.168;2022-10-15T04:41:43;100253.59;;;17.10
27986;BMP280;15453;53.692;10.168;2022-10-15T04:44:08;100261.91;;;17.10
27986;BMP280;15453;53.692;10.168;2022-10-15T04:46:34;100259.44;;;17.09
27986;BMP280;15453;53.692;10.168;2022-10-15T04:48:59;100266.09;;;17.08
27986;BMP280;15453;53.692;10.168;2022-10-15T04:51:25;100268.03;;;17.07
27986;BMP280;15453;53.692;10.168;2022-10-15T04:53:51;100270.50;;;17.09
27986;BMP280;15453;53.692;10.168;2022-10-15T04:56:18;100268.03;;;17.07
27986;BMP280;15453;53.692;10.168;2022-10-15T04:58:45;100273.56;;;17.07
27986;BMP280;15453;53.692;10.168;2022-10-15T05:01:13;100270.50;;;17.09
27986;BMP280;15453;53.692;10.168;2022-10-15T05:03:40;100283.44;;;17.13
27986;BMP280;15453;53.692;10.168;2022-10-15T05:06:17;100283.44;;;17.13
27986;BMP280;15453;53.692;10.168;2022-10-15T05:08:43;100282.31;;;17.14
27986;BMP280;15453;53.692;10.168;2022-10-15T05:11:13;100282.31;;;17.14
27986;BMP280;15453;53.692;10.168;2022-10-15T05:13:39;100274.63;;;17.11
27986;BMP280;15453;53.692;10.168;2022-10-15T05:16:17;100277.69;;;17.10
27986;BMP280;15453;53.692;10.168;2022-10-15T05:18:44;100277.19;;;17.08
27986;BMP280;15453;53.692;10.168;2022-10-15T05:21:10;100284.03;;;17.10
27986;BMP280;15453;53.692;10.168;2022-10-15T05:23:36;100280.44;;;17.10
27986;BMP280;15453;53.692;10.168;2022-10-15T05:26:04;100283.75;;;17.12
27986;BMP280;15453;53.692;10.168;2022-10-15T05:28:30;100289.78;;;17.14
27986;BMP280;15453;53.692;10.168;2022-10-15T05:31:02;100289.78;;;17.14
27986;BMP280;15453;53.692;10.168;2022-10-15T05:33:27;100291.75;;;17.13
27986;BMP280;15453;53.692;10.168;2022-10-15T05:35:53;100291.75;;;17.13
27986;BMP280;15453;53.692;10.168;2022-10-15T05:38:18;100290.63;;;17.14
27986;BMP280;15453;53.692;10.168;2022-10-15T05:40:49;100298.63;;;17.16
27986;BMP280;15453;53.692;10.168;2022-10-15T05:43:15;100292.25;;;17.15
27986;BMP280;15453;53.692;10.168;2022-10-15T05:45:40;100296.16;;;17.14
27986;BMP280;15453;53.692;10.168;2022-10-15T05:48:06;100298.09;;;17.14
27986;BMP280;15453;53.692;10.168;2022-10-15T05:50:31;100297.28;;;17.13
27986;BMP280;15453;53.692;10.168;2022-10-15T05:52:56;100312.47;;;17.16
27986;BMP280;15453;53.692;10.168;2022-10-15T05:55:22;100312.47;;;17.16
27986;BMP280;15453;53.692;10.168;2022-10-15T05:57:47;100307.50;;;17.13
27986;BMP280;15453;53.692;10.168;2022-10-15T06:00:13;100305.59;;;17.13
27986;BMP280;15453;53.692;10.168;2022-10-15T06:02:38;100307.22;;;17.14
27986;BMP280;15453;53.692;10.168;2022-10-15T06:05:04;100312.16;;;17.17
27986;BMP280;15453;53.692;10.168;2022-10-15T06:07:30;100314.09;;;17.17
27986;BMP280;15453;53.692;10.168;2022-10-15T06:09:56;100317.06;;;17.20
27986;BMP280;15453;53.692;10.168;2022-10-15T06:12:21;100317.06;;;17.20
27986;BMP280;15453;53.692;10.168;2022-10-15T06:14:46;100310.53;;;17.17
27986;BMP280;15453;53.692;10.168;2022-10-15T06:17:11;100316.84;;;17.17
27986;BMP280;15453;53.692;10.168;2022-10-15T06:19:37;100312.97;;;17.18
27986;BMP280;15453;53.692;10.168;2022-10-15T06:22:02;100315.72;;;17.18
27986;BMP280;15453;53.692;10.168;2022-10-15T06:24:27;100319.03;;;17.20
27986;BMP280;15453;53.692;10.168;2022-10-15T06:26:52;100314.28;;;17.20
27986;BMP280;15453;53.692;10.168;2022-10-15T06:29:18;100316.75;;;17.22
27986;BMP280;15453;53.692;10.168;2022-10-15T06:31:43;100322.00;;;17.23
27986;BMP280;15453;53.692;10.168;2022-10-15T06:34:08;100324.75;;;17.23
27986;BMP280;15453;53.692;10.168;2022-10-15T06:36:33;100328.38;;;17.24
27986;BMP280;15453;53.692;10.168;2022-10-15T06:38:59;100332.78;;;17.25
27986;BMP280;15453;53.692;10.168;2022-10-15T06:41:24;100337.47;;;17.24
27986;BMP280;15453;53.692;10.168;2022-10-15T06:43:49;100331.13;;;17.24
27986;BMP280;15453;53.692;10.168;2022-10-15T06:46:15;100339.34;;;17.29
27986;BMP280;15453;53.692;10.168;2022-10-15T06:48:40;100339.34;;;17.29
27986;BMP280;15453;53.692;10.168;2022-10-15T06:51:05;100332.47;;;17.27
27986;BMP280;15453;53.692;10.168;2022-10-15T06:53:31;100335.75;;;17.28
27986;BMP280;15453;53.692;10.168;2022-10-15T06:55:57;100329.09;;;17.30
27986;BMP280;15453;53.692;10.168;2022-10-15T06:58:23;100326.84;;;17.32
27986;BMP280;15453;53.692;10.168;2022-10-15T07:00:48;100329.31;;;17.33
27986;BMP280;15453;53.692;10.168;2022-10-15T07:03:13;100342.84;;;17.35
27986;BMP280;15453;53.692;10.168;2022-10-15T07:05:38;100334.25;;;17.36
27986;BMP280;15453;53.692;10.168;2022-10-15T07:08:04;100339.16;;;17.39
27986;BMP280;15453;53.692;10.168;2022-10-15T07:10:29;100337.22;;;17.40
27986;BMP280;15453;53.692;10.168;2022-10-15T07:12:54;100335.31;;;17.40
27986;BMP280;15453;53.692;10.168;2022-10-15T07:15:20;100335.03;;;17.42
27986;BMP280;15453;53.692;10.168;2022-10-15T07:17:50;100341.88;;;17.44
27986;BMP280;15453;53.692;10.168;2022-10-15T07:20:17;100348.75;;;17.47
27986;BMP280;15453;53.692;10.168;2022-10-15T07:22:42;100347.34;;;17.49
27986;BMP280;15453;53.692;10.168;2022-10-15T07:25:08;100356.69;;;17.53
27986;BMP280;15453;53.692;10.168;2022-10-15T07:27:34;100356.69;;;17.53
27986;BMP280;15453;53.692;10.168;2022-10-15T07:29:59;100354.22;;;17.52
27986;BMP280;15453;53.692;10.168;2022-10-15T07:32:25;100355.84;;;17.53
27986;BMP280;15453;53.692;10.168;2022-10-15T07:34:50;100348.66;;;17.52
27986;BMP280;15453;53.692;10.168;2022-10-15T07:37:15;100359.94;;;17.55
27986;BMP280;15453;53.692;10.168;2022-10-15T07:39:40;100359.94;;;17.55
27986;BMP280;15453;53.692;10.168;2022-10-15T07:42:05;100355.03;;;17.52
27986;BMP280;15453;53.692;10.168;2022-10-15T07:44:31;100349.50;;;17.52
27986;BMP280;15453;53.692;10.168;2022-10-15T07:46:56;100352.28;;;17.52
27986;BMP280;15453;53.692;10.168;2022-10-15T07:49:21;100350.00;;;17.54
27986;BMP280;15453;53.692;10.168;2022-10-15T07:51:46;100350.84;;;17.55
27986;BMP280;15453;53.692;10.168;2022-10-15T07:54:12;100353.28;;;17.56
27986;BMP280;15453;53.692;10.168;2022-10-15T07:56:37;100347.97;;;17.60
27986;BMP280;15453;53.692;10.168;2022-10-15T07:59:02;100354.53;;;17.64
27986;BMP280;15453;53.692;10.168;2022-10-15T08:01:27;100346.44;;;17.67
27986;BMP280;15453;53.692;10.168;2022-10-15T08:03:52;100348.59;;;17.70
27986;BMP280;15453;53.692;10.168;2022-10-15T08:06:18;100339.34;;;17.75
27986;BMP280;15453;53.692;10.168;2022-10-15T08:08:43;100337.13;;;17.77
27986;BMP280;15453;53.692;10.168;2022-10-15T08:11:14;100346.47;;;17.81
27986;BMP280;15453;53.692;10.168;2022-10-15T08:13:41;100348.09;;;17.82
27986;BMP280;15453;53.692;10.168;2022-10-15T08:16:12;100344.19;;;17.83
27986;BMP280;15453;53.692;10.168;2022-10-15T08:18:38;100348.63;;;17.84
27986;BMP280;15453;53.692;10.168;2022-10-15T08:21:04;100349.13;;;17.86
27986;BMP280;15453;53.692;10.168;2022-10-15T08:23:31;100348.00;;;17.87
27986;BMP280;15453;53.692;10.168;2022-10-15T08:25:57;100356.53;;;17.90
27986;BMP280;15453;53.692;10.168;2022-10-15T08:28:23;100352.63;;;17.91
27986;BMP280;15453;53.692;10.168;2022-10-15T08:30:48;100356.72;;;17.94
27986;BMP280;15453;53.692;10.168;2022-10-15T08:33:13;100361.38;;;17.98
27986;BMP280;15453;53.692;10.168;2022-10-15T08:35:40;100364.94;;;17.99
27986;BMP280;15453;53.692;10.168;2022-10-15T08:38:05;100360.44;;;18.03
27986;BMP280;15453;53.692;10.168;2022-10-15T08:40:31;100366.19;;;18.06
27986;BMP280;15453;53.692;10.168;2022-10-15T08:42:56;100363.63;;;18.10
27986;BMP280;15453;53.692;10.168;2022-10-15T08:45:26;100358.81;;;18.15
27986;BMP280;15453;53.692;10.168;2022-10-15T08:47:57;100360.94;;;18.18
27986;BMP280;15453;53.692;10.168;2022-10-15T08:50:40;100371.94;;;18.23
27986;BMP280;15453;53.692;10.168;2022-10-15T08:53:12;100376.22;;;18.29
27986;BMP280;15453;53.692;10.168;2022-10-15T08:55:39;100374.22;;;18.35
27986;BMP280;15453;53.692;10.168;2022-10-15T09:00:49;100374.09;;;18.40
27986;BMP280;15453;53.692;10.168;2022-10-15T09:03:36;100375.44;;;18.42
27986;BMP280;15453;53.692;10.168;2022-10-15T09:06:11;100385.59;;;18.47
27986;BMP280;15453;53.692;10.168;2022-10-15T09:11:41;100374.72;;;18.50
27986;BMP280;15453;53.692;10.168;2022-10-15T09:14:12;100376.34;;;18.51
27986;BMP280;15453;53.692;10.168;2022-10-15T09:16:38;100375.22;;;18.52
27986;BMP280;15453;53.692;10.168;2022-10-15T09:19:15;100375.72;;;18.54
27986;BMP280;15453;53.692;10.168;2022-10-15T09:21:41;100381.28;;;18.54
27986;BMP280;15453;53.692;10.168;2022-10-15T09:24:11;100372.66;;;18.56
27986;BMP280;15453;53.692;10.168;2022-10-15T09:27:03;100392.56;;;18.58
27986;BMP280;15453;53.692;10.168;2022-10-15T09:29:45;100379.84;;;18.57
27986;BMP280;15453;53.692;10.168;2022-10-15T09:34:44;100380.25;;;18.64
27986;BMP280;15453;53.692;10.168;2022-10-15T09:37:22;100380.72;;;18.66
27986;BMP280;15453;53.692;10.168;2022-10-15T09:40:07;100387.13;;;18.66
27986;BMP280;15453;53.692;10.168;2022-10-15T09:42:40;100376.22;;;18.70
27986;BMP280;15453;53.692;10.168;2022-10-15T09:45:11;100369.75;;;18.74
27986;BMP280;15453;53.692;10.168;2022-10-15T09:47:39;100369.00;;;18.82
27986;BMP280;15453;53.692;10.168;2022-10-15T09:50:07;100369.00;;;18.82
27986;BMP280;15453;53.692;10.168;2022-10-15T09:57:55;100371.94;;;18.99
27986;BMP280;15453;53.692;10.168;2022-10-15T10:00:22;100371.94;;;18.99
27986;BMP280;15453;53.692;10.168;2022-10-15T10:03:05;100371.53;;;18.92
27986;BMP280;15453;53.692;10.168;2022-10-15T10:05:34;100370.34;;;19.07
27986;BMP280;15453;53.692;10.168;2022-10-15T10:08:21;100374.31;;;19.14
27986;BMP280;15453;53.692;10.168;2022-10-15T10:10:59;100372.56;;;19.18
27986;BMP280;15453;53.692;10.168;2022-10-15T10:13:27;100366.28;;;19.26
27986;BMP280;15453;53.692;10.168;2022-10-15T10:15:55;100362.25;;;19.32
27986;BMP280;15453;53.692;10.168;2022-10-15T10:18:25;100357.06;;;19.39
27986;BMP280;15453;53.692;10.168;2022-10-15T10:20:55;100347.47;;;19.45
27986;BMP280;15453;53.692;10.168;2022-10-15T10:23:29;100354.53;;;19.51
27986;BMP280;15453;53.692;10.168;2022-10-15T10:25:57;100356.06;;;19.57
27986;BMP280;15453;53.692;10.168;2022-10-15T10:28:31;100370.50;;;19.68
27986;BMP280;15453;53.692;10.168;2022-10-15T10:33:46;100362.97;;;19.68
27986;BMP280;15453;53.692;10.168;2022-10-15T10:36:29;100368.41;;;19.73
27986;BMP280;15453;53.692;10.168;2022-10-15T10:39:13;100357.47;;;19.77
27986;BMP280;15453;53.692;10.168;2022-10-15T10:41:52;100363.19;;;19.80
27986;BMP280;15453;53.692;10.168;2022-10-15T10:47:23;100356.06;;;19.88
27986;BMP280;15453;53.692;10.168;2022-10-15T10:49:54;100356.06;;;19.88
27986;BMP280;15453;53.692;10.168;2022-10-15T10:55:05;100354.44;;;19.95
27986;BMP280;15453;53.692;10.168;2022-10-15T10:57:42;100348.06;;;19.95
27986;BMP280;15453;53.692;10.168;2022-10-15T11:00:12;100343.34;;;20.04
27986;BMP280;15453;53.692;10.168;2022-10-15T11:02:38;100345.50;;;20.07
27986;BMP280;15453;53.692;10.168;2022-10-15T11:05:08;100336.84;;;20.08
27986;BMP280;15453;53.692;10.168;2022-10-15T11:08:13;100344.25;;;20.13
27986;BMP280;15453;53.692;10.168;2022-10-15T11:10:49;100344.25;;;20.13
27986;BMP280;15453;53.692;10.168;2022-10-15T11:13:25;100334.94;;;20.17
27986;BMP280;15453;53.692;10.168;2022-10-15T11:16:03;100339.56;;;20.30
27986;BMP280;15453;53.692;10.168;2022-10-15T11:18:41;100347.78;;;20.35
27986;BMP280;15453;53.692;10.168;2022-10-15T11:21:19;100347.78;;;20.35
27986;BMP280;15453;53.692;10.168;2022-10-15T11:24:09;100337.97;;;20.38
27986;BMP280;15453;53.692;10.168;2022-10-15T11:29:54;100335.81;;;20.43
27986;BMP280;15453;53.692;10.168;2022-10-15T11:32:50;100334.03;;;20.47
27986;BMP280;15453;53.692;10.168;2022-10-15T11:38:18;100335.53;;;20.53
27986;BMP280;15453;53.692;10.168;2022-10-15T11:43:37;100326.84;;;20.55
27986;BMP280;15453;53.692;10.168;2022-10-15T11:46:30;100340.44;;;20.65
27986;BMP280;15453;53.692;10.168;2022-10-15T11:54:39;100325.56;;;20.78
27986;BMP280;15453;53.692;10.168;2022-10-15T11:57:12;100324.09;;;20.80
27986;BMP280;15453;53.692;10.168;2022-10-15T11:59:46;100324.09;;;20.80
27986;BMP280;15453;53.692;10.168;2022-10-15T12:02:17;100315.72;;;20.80
27986;BMP280;15453;53.692;10.168;2022-10-15T12:04:47;100316.06;;;20.87
27986;BMP280;15453;53.692;10.168;2022-10-15T12:07:21;100313.97;;;20.93
27986;BMP280;15453;53.692;10.168;2022-10-15T12:09:51;100312.66;;;21.07
27986;BMP280;15453;53.692;10.168;2022-10-15T12:12:29;100296.63;;;21.13
27986;BMP280;15453;53.692;10.168;2022-10-15T12:15:19;100305.75;;;21.22
27986;BMP280;15453;53.692;10.168;2022-10-15T12:17:54;100305.75;;;21.22
27986;BMP280;15453;53.692;10.168;2022-10-15T12:20:25;100290.03;;;21.26
27986;BMP280;15453;53.692;10.168;2022-10-15T12:30:41;100274.38;;;21.50
27986;BMP280;15453;53.692;10.168;2022-10-15T12:36:01;100267.31;;;21.61
27986;BMP280;15453;53.692;10.168;2022-10-15T12:38:32;100267.31;;;21.61
27986;BMP280;15453;53.692;10.168;2022-10-15T12:41:05;100259.91;;;21.65
27986;BMP280;15453;53.692;10.168;2022-10-15T12:43:33;100267.13;;;21.75
27986;BMP280;15453;53.692;10.168;2022-10-15T12:46:00;100267.13;;;21.75
27986;BMP280;15453;53.692;10.168;2022-10-15T12:48:33;100262.34;;;21.75
27986;BMP280;15453;53.692;10.168;2022-10-15T12:53:47;100264.50;;;21.78
27986;BMP280;15453;53.692;10.168;2022-10-15T13:08:55;100251.91;;;21.64
27986;BMP280;15453;53.692;10.168;2022-10-15T13:11:30;100251.91;;;21.64
27986;BMP280;15453;53.692;10.168;2022-10-15T13:14:01;100247.63;;;21.58
27986;BMP280;15453;53.692;10.168;2022-10-15T13:16:28;100257.00;;;21.53
27986;BMP280;15453;53.692;10.168;2022-10-15T13:18:55;100257.00;;;21.53
27986;BMP280;15453;53.692;10.168;2022-10-15T13:21:22;100265.22;;;21.50
27986;BMP280;15453;53.692;10.168;2022-10-15T13:24:10;100257.84;;;21.45
27986;BMP280;15453;53.692;10.168;2022-10-15T13:26:35;100263.94;;;21.39
27986;BMP280;15453;53.692;10.168;2022-10-15T13:29:00;100266.09;;;21.33
27986;BMP280;15453;53.692;10.168;2022-10-15T13:31:30;100266.09;;;21.33
27986;BMP280;15453;53.692;10.168;2022-10-15T13:34:07;100273.31;;;21.26
27986;BMP280;15453;53.692;10.168;2022-10-15T13:36:34;100273.31;;;21.26
27986;BMP280;15453;53.692;10.168;2022-10-15T13:39:17;100255.13;;;21.20
27986;BMP280;15453;53.692;10.168;2022-10-15T13:41:44;100260.56;;;21.16
27986;BMP280;15453;53.692;10.168;2022-10-15T13:44:23;100254.84;;;21.13
27986;BMP280;15453;53.692;10.168;2022-10-15T13:46:49;100257.94;;;21.11
27986;BMP280;15453;53.692;10.168;2022-10-15T13:49:16;100257.94;;;21.11
27986;BMP280;15453;53.692;10.168;2022-10-15T13:51:44;100257.44;;;21.09
27986;BMP280;15453;53.692;10.168;2022-10-15T13:54:15;100257.44;;;21.09
27986;BMP280;15453;53.692;10.168;2022-10-15T13:56:43;100243.38;;;21.06
27986;BMP280;15453;53.692;10.168;2022-10-15T13:59:15;100251.22;;;21.04
27986;BMP280;15453;53.692;10.168;2022-10-15T14:01:50;100238.47;;;21.03
27986;BMP280;15453;53.692;10.168;2022-10-15T14:04:18;100238.47;;;21.03
27986;BMP280;15453;53.692;10.168;2022-10-15T14:07:01;100222.09;;;21.01
27986;BMP280;15453;53.692;10.168;2022-10-15T14:09:31;100222.09;;;21.01
27986;BMP280;15453;53.692;10.168;2022-10-15T14:11:57;100210.16;;;21.01
27986;BMP280;15453;53.692;10.168;2022-10-15T14:14:40;100215.53;;;21.06
27986;BMP280;15453;53.692;10.168;2022-10-15T14:17:10;100215.53;;;21.06
27986;BMP280;15453;53.692;10.168;2022-10-15T14:19:46;100221.25;;;21.09
27986;BMP280;15453;53.692;10.168;2022-10-15T14:22:18;100208.16;;;21.10
27986;BMP280;15453;53.692;10.168;2022-10-15T14:24:44;100213.41;;;21.11
27986;BMP280;15453;53.692;10.168;2022-10-15T14:27:15;100213.41;;;21.11
27986;BMP280;15453;53.692;10.168;2022-10-15T14:29:44;100202.72;;;21.13
27986;BMP280;15453;53.692;10.168;2022-10-15T14:32:20;100202.72;;;21.13
27986;BMP280;15453;53.692;10.168;2022-10-15T14:34:45;100206.19;;;21.10
27986;BMP280;15453;53.692;10.168;2022-10-15T14:40:12;100216.00;;;21.08
27986;BMP280;15453;53.692;10.168;2022-10-15T14:42:40;100216.00;;;21.08
27986;BMP280;15453;53.692;10.168;2022-10-15T14:45:26;100208.34;;;21.05
27986;BMP280;15453;53.692;10.168;2022-10-15T14:47:55;100201.63;;;21.06
27986;BMP280;15453;53.692;10.168;2022-10-15T14:50:27;100201.63;;;21.06
27986;BMP280;15453;53.692;10.168;2022-10-15T14:52:53;100203.75;;;21.00
27986;BMP280;15453;53.692;10.168;2022-10-15T14:57:47;100207.53;;;20.96
27986;BMP280;15453;53.692;10.168;2022-10-15T15:00:26;100196.22;;;20.92
27986;BMP280;15453;53.692;10.168;2022-10-15T15:02:54;100194.59;;;20.91
27986;BMP280;15453;53.692;10.168;2022-10-15T15:05:25;100194.59;;;20.91
27986;BMP280;15453;53.692;10.168;2022-10-15T15:07:51;100208.19;;;20.93
27986;BMP280;15453;53.692;10.168;2022-10-15T15:10:16;100209.00;;;20.93
27986;BMP280;15453;53.692;10.168;2022-10-15T15:12:47;100204.91;;;20.91
27986;BMP280;15453;53.692;10.168;2022-10-15T15:15:14;100209.66;;;20.90
27986;BMP280;15453;53.692;10.168;2022-10-15T15:17:40;100209.66;;;20.90
27986;BMP280;15453;53.692;10.168;2022-10-15T15:20:06;100204.25;;;20.85
27986;BMP280;15453;53.692;10.168;2022-10-15T15:22:33;100200.13;;;20.83
27986;BMP280;15453;53.692;10.168;2022-10-15T15:25:01;100204.09;;;20.82
27986;BMP280;15453;53.692;10.168;2022-10-15T15:27:29;100204.41;;;20.80